createdAt,value
2018-11-20T00:02:22.719Z,19.02
2018-11-20T00:05:04.096Z,17.87
2018-11-20T00:07:47.068Z,17.42
2018-11-20T00:10:38.168Z,18.95
2018-11-20T00:13:38.264Z,18.55
2018-11-20T00:16:24.886Z,16.65
2018-11-20T00:19:11.707Z,15.93
2018-11-20T00:22:05.881Z,16.77
2018-11-20T00:25:09.220Z,18.15
2018-11-20T00:28:06.374Z,14.85
2018-11-20T00:30:53.996Z,19.35
2018-11-20T00:33:42.136Z,18.90
2018-11-20T00:36:33.149Z,18.12
2018-11-20T00:39:13.080Z,18.17
2018-11-20T00:41:52.017Z,18.05
2018-11-20T00:44:42.808Z,18.12
2018-11-20T00:47:23.080Z,19.20
2018-11-20T00:50:09.811Z,18.70
2018-11-20T00:52:56.705Z,15.32
2018-11-20T00:56:15.469Z,17.10
2018-11-20T00:59:21.660Z,14.85
2018-11-20T01:02:18.691Z,15.90
2018-11-20T01:05:24.951Z,16.73
2018-11-20T01:08:15.841Z,16.60
2018-11-20T01:11:22.114Z,17.47
2018-11-20T01:14:08.897Z,14.28
2018-11-20T01:16:50.107Z,16.95
2018-11-20T01:19:44.283Z,19.25
2018-11-20T01:22:21.994Z,18.37
2018-11-20T01:25:02.748Z,16.95
2018-11-20T01:27:47.629Z,16.10
2018-11-20T01:30:27.563Z,16.50
2018-11-20T01:33:33.686Z,17.92
2018-11-20T01:36:22.390Z,14.65
2018-11-20T01:39:22.389Z,16.50
2018-11-20T01:42:05.228Z,16.25
2018-11-20T01:44:53.376Z,17.32
2018-11-20T01:47:30.758Z,18.37
2018-11-20T01:50:11.814Z,17.75
2018-11-20T01:52:54.038Z,17.95
2018-11-20T01:55:40.965Z,19.50
2018-11-20T01:58:31.964Z,18.07
2018-11-20T02:01:18.459Z,18.15
2018-11-20T02:04:10.387Z,17.55
2018-11-20T02:07:09.809Z,13.05
2018-11-20T02:09:56.303Z,17.65
2018-11-20T02:12:44.478Z,12.68
2018-11-20T02:15:28.676Z,18.05
2018-11-20T02:18:20.490Z,15.95
2018-11-20T02:21:07.488Z,16.67
2018-11-20T02:24:01.337Z,16.00
2018-11-20T02:26:49.144Z,15.85
2018-11-20T02:29:37.306Z,14.73
2018-11-20T02:32:37.789Z,16.60
2018-11-20T02:35:27.283Z,18.30
2018-11-20T02:38:13.900Z,15.38
2018-11-20T02:40:59.976Z,16.15
2018-11-20T02:43:43.131Z,14.40
2018-11-20T02:46:24.482Z,19.05
2018-11-20T02:49:19.204Z,17.73
2018-11-20T02:52:07.351Z,19.23
2018-11-20T02:54:54.758Z,19.80
2018-11-20T02:57:33.163Z,20.27
2018-11-20T03:00:24.247Z,19.92
2018-11-20T03:03:11.121Z,21.33
2018-11-20T03:06:05.539Z,21.50
2018-11-20T03:08:49.125Z,17.02
2018-11-20T03:11:39.915Z,19.37
2018-11-20T03:14:26.753Z,15.90
2018-11-20T03:17:07.496Z,15.90
2018-11-20T03:19:49.102Z,16.52
2018-11-20T03:22:29.849Z,19.90
2018-11-20T03:25:22.219Z,19.60
2018-11-20T03:28:07.779Z,22.85
2018-11-20T03:31:14.753Z,17.10
2018-11-20T03:33:54.502Z,21.10
2018-11-20T03:36:41.634Z,21.30
2018-11-20T03:39:26.401Z,22.45
2018-11-20T03:42:20.319Z,19.87
2018-11-20T03:45:00.020Z,22.17
2018-11-20T03:47:45.942Z,19.20
2018-11-20T03:50:34.045Z,23.98
2018-11-20T03:53:21.057Z,23.05
2018-11-20T03:56:03.139Z,23.12
2018-11-20T03:58:57.131Z,21.80
2018-11-20T04:01:44.320Z,22.90
2018-11-20T04:04:31.198Z,23.80
2018-11-20T04:07:19.008Z,20.05
2018-11-20T04:10:02.539Z,14.95
2018-11-20T04:12:54.481Z,18.40
2018-11-20T04:15:41.416Z,22.67
2018-11-20T04:18:28.371Z,18.37
2018-11-20T04:21:21.976Z,21.35
2018-11-20T04:24:25.178Z,20.45
2018-11-20T04:27:11.857Z,22.02
2018-11-20T04:29:55.567Z,17.20
2018-11-20T04:32:42.413Z,18.65
2018-11-20T04:35:33.128Z,18.92
2018-11-20T04:38:34.281Z,15.50
2018-11-20T04:41:22.974Z,15.20
2018-11-20T04:44:11.057Z,16.25
2018-11-20T04:46:57.742Z,17.80
2018-11-20T04:49:44.606Z,16.17
2018-11-20T04:52:31.144Z,16.75
2018-11-20T04:55:22.297Z,15.20
2018-11-20T04:58:25.454Z,12.93
2018-11-20T05:01:24.289Z,11.22
2018-11-20T05:04:03.200Z,15.00
2018-11-20T05:06:48.568Z,16.10
2018-11-20T05:09:42.369Z,14.50
2018-11-20T05:12:40.134Z,12.55
2018-11-20T05:15:43.502Z,15.68
2018-11-20T05:18:31.663Z,16.30
2018-11-20T05:21:12.728Z,19.25
2018-11-20T05:23:56.790Z,14.30
2018-11-20T05:26:48.004Z,17.40
2018-11-20T05:29:44.957Z,12.73
2018-11-20T05:32:31.827Z,11.05
2018-11-20T05:35:12.114Z,11.15
2018-11-20T05:38:00.264Z,13.05
2018-11-20T05:40:45.746Z,13.05
2018-11-20T05:43:26.518Z,15.65
2018-11-20T05:46:04.193Z,15.10
2018-11-20T05:49:10.234Z,15.00
2018-11-20T05:51:58.437Z,16.77
2018-11-20T05:54:49.502Z,13.08
2018-11-20T05:57:39.407Z,14.30
2018-11-20T06:00:27.319Z,15.15
2018-11-20T06:03:18.146Z,12.35
2018-11-20T06:06:09.323Z,14.00
2018-11-20T06:09:09.512Z,13.25
2018-11-20T06:12:03.961Z,15.68
2018-11-20T06:14:53.759Z,12.82
2018-11-20T06:17:43.124Z,16.02
2018-11-20T06:20:34.481Z,15.40
2018-11-20T06:23:34.519Z,13.10
2018-11-20T06:26:21.270Z,16.75
2018-11-20T06:29:12.054Z,14.95
2018-11-20T06:32:09.148Z,16.87
2018-11-20T06:34:48.545Z,15.10
2018-11-20T06:37:51.486Z,15.60
2018-11-20T06:40:38.353Z,12.53
2018-11-20T06:43:25.162Z,12.47
2018-11-20T06:46:03.906Z,16.17
2018-11-20T06:48:57.860Z,17.05
2018-11-20T06:51:44.278Z,15.98
2018-11-20T06:54:33.668Z,15.38
2018-11-20T06:57:20.680Z,17.80
2018-11-20T07:00:11.376Z,13.28
2018-11-20T07:03:05.379Z,12.95
2018-11-20T07:05:52.542Z,15.08
2018-11-20T07:08:32.837Z,11.70
2018-11-20T07:11:23.526Z,14.30
2018-11-20T07:14:25.843Z,14.90
2018-11-20T07:17:28.000Z,15.98
2018-11-20T07:20:32.378Z,18.20
2018-11-20T07:23:28.713Z,14.43
2018-11-20T07:26:07.854Z,18.30
2018-11-20T07:28:46.704Z,14.83
2018-11-20T07:31:34.887Z,16.65
2018-11-20T07:34:22.967Z,19.25
2018-11-20T07:37:09.950Z,13.50
2018-11-20T07:40:00.637Z,18.70
2018-11-20T07:42:40.436Z,17.85
2018-11-20T07:45:31.771Z,20.62
2018-11-20T07:48:18.707Z,22.53
2018-11-20T07:51:05.809Z,19.65
2018-11-20T07:53:52.667Z,18.42
2018-11-20T07:56:52.700Z,20.37
2018-11-20T07:59:39.657Z,13.68
2018-11-20T08:02:22.031Z,17.67
2018-11-20T08:05:19.070Z,15.78
2018-11-20T08:08:13.759Z,18.60
2018-11-20T08:10:59.872Z,20.32
2018-11-20T08:14:02.905Z,15.95
2018-11-20T08:16:49.869Z,18.15
2018-11-20T08:19:41.171Z,13.62
2018-11-20T08:22:38.373Z,17.93
2018-11-20T08:25:38.795Z,15.15
2018-11-20T08:28:25.487Z,20.27
2018-11-20T08:31:12.639Z,17.37
2018-11-20T08:34:02.187Z,17.67
2018-11-20T08:36:45.569Z,17.98
2018-11-20T08:39:36.803Z,17.20
2018-11-20T08:42:15.301Z,16.97
2018-11-20T08:45:21.698Z,19.70
2018-11-20T08:47:58.205Z,18.30
2018-11-20T08:50:52.435Z,14.43
2018-11-20T08:53:39.502Z,18.12
2018-11-20T08:59:02.151Z,19.23
2018-11-20T09:02:01.028Z,21.02
2018-11-20T09:04:55.340Z,19.45
2018-11-20T09:07:46.342Z,18.12
2018-11-20T09:10:43.738Z,18.80
2018-11-20T09:13:31.903Z,19.12
2018-11-20T09:16:20.057Z,20.10
2018-11-20T09:19:03.392Z,19.60
2018-11-20T09:21:44.152Z,19.60
2018-11-20T09:24:30.879Z,18.90
2018-11-20T09:27:17.597Z,19.20
2018-11-20T09:30:09.828Z,14.90
2018-11-20T09:33:01.046Z,19.65
2018-11-20T09:35:46.190Z,17.52
2018-11-20T09:38:32.652Z,16.73
2018-11-20T09:41:09.903Z,16.32
2018-11-20T09:43:59.480Z,16.50
2018-11-20T09:46:42.440Z,20.90
2018-11-20T09:49:22.549Z,18.42
2018-11-20T09:52:00.330Z,18.77
2018-11-20T09:54:47.137Z,19.15
2018-11-20T09:57:32.413Z,20.00
2018-11-20T10:00:35.565Z,18.80
2018-11-20T10:03:17.338Z,18.98
2018-11-20T10:06:05.531Z,17.42
2018-11-20T10:08:56.977Z,16.97
2018-11-20T10:11:45.131Z,18.55
2018-11-20T10:14:37.590Z,17.02
2018-11-20T10:17:30.533Z,19.87
2018-11-20T10:20:30.776Z,18.10
2018-11-20T10:23:20.197Z,19.77
2018-11-20T10:26:14.323Z,20.80
2018-11-20T10:29:05.257Z,20.62
2018-11-20T10:32:03.783Z,19.75
2018-11-20T10:34:52.076Z,20.55
2018-11-20T10:37:37.608Z,17.77
2018-11-20T10:40:36.921Z,18.12
2018-11-20T10:43:26.069Z,18.92
2018-11-20T10:46:11.794Z,21.40
2018-11-20T10:48:58.789Z,20.73
2018-11-20T10:51:39.457Z,20.37
2018-11-20T10:54:26.521Z,22.60
2018-11-20T10:57:04.158Z,20.73
2018-11-20T10:59:54.235Z,20.80
2018-11-20T11:02:51.135Z,21.10
2018-11-20T11:05:48.115Z,20.63
2018-11-20T11:08:34.673Z,22.53
2018-11-20T11:11:31.791Z,20.55
2018-11-20T11:14:28.950Z,21.10
2018-11-20T11:17:19.662Z,20.95
2018-11-20T11:20:07.804Z,20.83
2018-11-20T11:22:51.871Z,21.50
2018-11-20T11:25:42.913Z,22.17
2018-11-20T11:28:40.025Z,21.33
2018-11-20T11:31:33.878Z,21.90
2018-11-20T11:34:30.951Z,22.43
2018-11-20T11:37:34.375Z,20.80
2018-11-20T11:40:22.515Z,21.33
2018-11-20T11:43:15.022Z,19.53
2018-11-20T11:46:14.923Z,20.57
2018-11-20T11:49:01.690Z,20.70
2018-11-20T11:51:48.553Z,21.83
2018-11-20T11:54:39.471Z,20.17
2018-11-20T11:57:19.296Z,22.83
2018-11-20T12:00:04.691Z,24.10
2018-11-20T12:05:36.354Z,20.03
2018-11-20T12:08:23.728Z,21.63
2018-11-20T12:11:10.795Z,21.02
2018-11-20T12:14:00.919Z,21.57
2018-11-20T12:16:54.796Z,21.90
2018-11-20T12:19:41.650Z,19.00
2018-11-20T12:22:22.330Z,21.85
2018-11-20T12:25:25.754Z,20.37
2018-11-20T12:28:17.962Z,22.43
2018-11-20T12:31:15.288Z,20.50
2018-11-20T12:34:06.947Z,20.48
2018-11-20T12:36:53.708Z,20.27
2018-11-20T12:39:42.414Z,20.70
2018-11-20T12:42:41.059Z,19.67
2018-11-20T12:45:25.673Z,18.63
2018-11-20T12:48:04.795Z,19.50
2018-11-20T12:50:51.868Z,19.57
2018-11-20T12:53:31.957Z,19.25
2018-11-20T12:56:33.874Z,19.80
2018-11-20T12:59:19.357Z,18.67
2018-11-20T13:02:07.050Z,19.48
2018-11-20T13:04:44.427Z,19.53
2018-11-20T13:07:47.928Z,15.85
2018-11-20T13:10:28.282Z,18.62
2018-11-20T13:13:25.076Z,19.33
2018-11-20T13:16:18.852Z,18.03
2018-11-20T13:19:05.593Z,16.80
2018-11-20T13:22:03.631Z,18.13
2018-11-20T13:24:46.300Z,16.77
2018-11-20T13:27:49.673Z,17.33
2018-11-20T13:30:46.625Z,18.25
2018-11-20T13:33:27.337Z,15.70
2018-11-20T13:36:28.442Z,15.70
2018-11-20T13:39:15.436Z,16.00
2018-11-20T13:42:06.238Z,14.95
2018-11-20T13:44:59.303Z,13.83
2018-11-20T13:47:46.019Z,15.28
2018-11-20T13:50:49.411Z,12.88
2018-11-20T13:53:36.617Z,11.77
2018-11-20T13:56:19.585Z,13.65
2018-11-20T13:59:07.026Z,14.58
2018-11-20T14:01:58.210Z,13.83
2018-11-20T14:04:52.546Z,14.13
2018-11-20T14:07:37.698Z,15.60
2018-11-20T14:10:28.502Z,12.50
2018-11-20T14:13:15.424Z,14.10
2018-11-20T14:15:55.772Z,15.70
2018-11-20T14:18:42.684Z,18.30
2018-11-20T14:21:29.808Z,17.23
2018-11-20T14:24:16.645Z,13.77
2018-11-20T14:26:58.866Z,18.20
2018-11-20T14:29:49.528Z,19.90
2018-11-20T14:32:30.167Z,20.13
2018-11-20T14:35:17.051Z,18.98
2018-11-20T14:38:23.418Z,15.10
2018-11-20T14:41:09.559Z,17.00
2018-11-20T14:43:56.417Z,16.80
2018-11-20T14:46:43.355Z,15.18
2018-11-20T14:49:41.097Z,17.55
2018-11-20T14:52:27.744Z,15.73
2018-11-20T14:55:12.005Z,18.07
2018-11-20T14:57:56.715Z,15.57
2018-11-20T15:00:43.597Z,15.93
2018-11-20T15:03:30.547Z,10.08
2018-11-20T15:06:24.743Z,13.68
2018-11-20T15:09:28.163Z,14.10
2018-11-20T15:12:06.065Z,10.40
2018-11-20T15:14:53.123Z,14.05
2018-11-20T15:17:39.765Z,12.37
2018-11-20T15:20:26.776Z,12.40
2018-11-20T15:23:14.945Z,10.98
2018-11-20T15:25:54.506Z,10.82
2018-11-20T15:28:54.829Z,11.90
2018-11-20T15:31:42.994Z,12.30
2018-11-20T15:34:33.786Z,12.15
2018-11-20T15:37:30.625Z,11.80
2018-11-20T15:40:17.601Z,9.20
2018-11-20T15:43:04.429Z,9.87
2018-11-20T15:45:55.396Z,10.93
2018-11-20T15:48:42.652Z,9.50
2018-11-20T15:51:36.248Z,9.70
2018-11-20T15:54:24.404Z,9.63
2018-11-20T15:57:11.354Z,10.27
2018-11-20T16:00:11.219Z,9.50
2018-11-20T16:03:05.262Z,11.00
2018-11-20T16:05:52.287Z,10.55
2018-11-20T16:08:42.988Z,10.73
2018-11-20T16:11:33.787Z,10.35
2018-11-20T16:14:20.576Z,11.23
2018-11-20T16:17:17.037Z,11.97
2018-11-20T16:20:11.900Z,10.30
2018-11-20T16:23:17.949Z,9.33
2018-11-20T16:25:58.580Z,8.80
2018-11-20T16:28:54.843Z,9.70
2018-11-20T16:32:03.119Z,9.70
2018-11-20T16:34:46.778Z,9.35
2018-11-20T16:37:31.932Z,8.70
2018-11-20T16:40:29.104Z,11.08
2018-11-20T16:43:14.283Z,11.80
2018-11-20T16:46:02.440Z,10.07
2018-11-20T16:48:49.124Z,11.40
2018-11-20T16:51:31.211Z,10.40
2018-11-20T16:54:19.380Z,11.00
2018-11-20T16:57:10.162Z,11.27
2018-11-20T17:00:02.317Z,11.80
2018-11-20T17:02:50.742Z,14.20
2018-11-20T17:05:37.685Z,11.83
2018-11-20T17:08:41.057Z,14.07
2018-11-20T17:11:27.732Z,12.47
2018-11-20T17:14:09.672Z,13.53
2018-11-20T17:17:13.094Z,12.10
2018-11-20T17:19:56.407Z,14.45
2018-11-20T17:22:50.579Z,15.60
2018-11-20T17:25:50.510Z,14.90
2018-11-20T17:28:37.105Z,13.17
2018-11-20T17:31:28.470Z,15.13
2018-11-20T17:34:22.260Z,14.20
2018-11-20T17:37:06.142Z,14.70
2018-11-20T17:39:54.357Z,16.50
2018-11-20T17:42:41.106Z,16.82
2018-11-20T17:45:44.669Z,17.10
2018-11-20T17:48:47.869Z,15.30
2018-11-20T17:51:34.650Z,12.58
2018-11-20T17:54:11.051Z,15.40
2018-11-20T17:56:57.987Z,15.10
2018-11-20T17:59:55.179Z,15.13
2018-11-20T18:02:37.746Z,16.85
2018-11-20T18:05:25.060Z,15.73
2018-11-20T18:08:28.215Z,16.30
2018-11-20T18:11:11.357Z,15.48
2018-11-20T18:13:58.360Z,15.53
2018-11-20T18:16:47.144Z,16.73
2018-11-20T18:19:34.029Z,16.63
2018-11-20T18:22:21.284Z,17.20
2018-11-20T18:25:11.160Z,17.23
2018-11-20T18:27:58.051Z,16.13
2018-11-20T18:31:01.154Z,16.77
2018-11-20T18:33:52.435Z,17.00
2018-11-20T18:36:47.286Z,16.50
2018-11-20T18:39:33.944Z,16.20
2018-11-20T18:42:20.858Z,14.93
2018-11-20T18:45:08.993Z,16.50
2018-11-20T18:47:55.671Z,17.50
2018-11-20T18:50:52.653Z,17.13
2018-11-20T18:53:32.062Z,16.20
2018-11-20T18:56:23.662Z,16.87
2018-11-20T18:59:10.506Z,16.33
2018-11-20T19:02:13.927Z,16.13
2018-11-20T19:04:57.522Z,16.03
2018-11-20T19:07:35.821Z,15.10
2018-11-20T19:10:29.103Z,17.07
2018-11-20T19:13:15.933Z,15.70
2018-11-20T19:16:04.243Z,16.30
2018-11-20T19:19:10.615Z,15.97
2018-11-20T19:21:52.913Z,16.30
2018-11-20T19:24:48.248Z,16.50
2018-11-20T19:27:35.500Z,17.57
2018-11-20T19:30:22.914Z,16.60
2018-11-20T19:33:17.070Z,17.17
2018-11-20T19:36:10.902Z,17.10
2018-11-20T19:39:01.976Z,18.10
2018-11-20T19:41:43.842Z,16.57
2018-11-20T19:44:37.968Z,16.33
2018-11-20T19:47:17.579Z,15.77
2018-11-20T19:50:04.286Z,15.87
2018-11-20T19:52:50.386Z,15.80
2018-11-20T19:55:37.584Z,15.33
2018-11-20T19:58:32.830Z,16.30
2018-11-20T20:01:30.076Z,15.53
2018-11-20T20:04:36.574Z,16.97
2018-11-20T20:07:24.246Z,16.00
2018-11-20T20:10:17.464Z,15.10
2018-11-20T20:13:02.119Z,18.90
2018-11-20T20:17:10.374Z,20.27
2018-11-20T20:20:12.940Z,16.67
2018-11-20T20:22:47.692Z,16.17
2018-11-20T20:25:32.781Z,14.63
2018-11-20T20:28:18.771Z,14.80
2018-11-20T20:31:05.592Z,16.90
2018-11-20T20:33:51.682Z,13.50
2018-11-20T20:36:41.604Z,16.80
2018-11-20T20:39:28.215Z,14.60
2018-11-20T20:42:14.238Z,15.57
2018-11-20T20:45:07.123Z,14.07
2018-11-20T20:48:03.637Z,14.77
2018-11-20T20:50:41.888Z,14.70
2018-11-20T20:53:32.038Z,14.70
2018-11-20T20:56:09.435Z,15.50
2018-11-20T20:58:43.841Z,17.07
2018-11-20T21:01:31.193Z,14.70
2018-11-20T21:04:24.058Z,18.27
2018-11-20T21:07:20.109Z,19.07
2018-11-20T21:10:12.595Z,15.33
2018-11-20T21:13:08.612Z,16.33
2018-11-20T21:16:08.011Z,15.37
2018-11-20T21:18:54.083Z,14.57
2018-11-20T21:21:44.263Z,16.00
2018-11-20T21:24:34.507Z,16.17
2018-11-20T21:27:12.820Z,14.20
2018-11-20T21:29:58.854Z,15.30
2018-11-20T21:32:44.822Z,15.13
2018-11-20T21:35:30.974Z,15.23
2018-11-20T21:38:33.283Z,15.43
2018-11-20T21:41:19.657Z,15.10
2018-11-20T21:44:09.560Z,15.63
2018-11-20T21:46:56.845Z,14.50
2018-11-20T21:49:44.138Z,15.20
2018-11-20T21:52:29.991Z,14.60
2018-11-20T21:55:13.310Z,13.93
2018-11-20T21:57:59.362Z,12.17
2018-11-20T22:01:10.376Z,14.83
2018-11-20T22:04:03.497Z,14.40
2018-11-20T22:06:47.678Z,14.13
2018-11-20T22:09:33.755Z,14.17
2018-11-20T22:12:19.557Z,15.30
2018-11-20T22:15:12.845Z,14.83
2018-11-20T22:18:00.018Z,15.80
2018-11-20T22:20:46.095Z,14.80
2018-11-20T22:23:31.888Z,14.33
2018-11-20T22:26:05.829Z,15.83
2018-11-20T22:28:51.586Z,16.47
2018-11-20T22:31:37.455Z,14.17
2018-11-20T22:34:23.834Z,15.20
2018-11-20T22:37:02.731Z,17.43
2018-11-20T22:39:52.854Z,17.87
2018-11-20T22:42:31.023Z,15.80
2018-11-20T22:45:17.024Z,16.20
2018-11-20T22:48:08.552Z,16.67
2018-11-20T22:50:50.655Z,17.10
2018-11-20T22:53:43.755Z,16.33
2018-11-20T22:56:27.850Z,16.83
2018-11-20T22:59:11.806Z,17.10
2018-11-20T23:01:53.071Z,16.50
2018-11-20T23:04:38.796Z,16.53
2018-11-20T23:07:24.924Z,16.77
2018-11-20T23:09:53.062Z,17.00
2018-11-20T23:12:21.179Z,16.73
2018-11-20T23:14:49.300Z,16.83
2018-11-20T23:17:17.422Z,16.20
2018-11-20T23:19:45.585Z,16.27
2018-11-20T23:22:13.704Z,17.50
2018-11-20T23:24:41.840Z,15.87
2018-11-20T23:27:09.955Z,16.70
2018-11-20T23:29:38.068Z,17.27
2018-11-20T23:32:06.203Z,17.07
2018-11-20T23:34:34.319Z,16.27
2018-11-20T23:37:02.449Z,16.07
2018-11-20T23:39:30.546Z,16.50
2018-11-20T23:41:58.664Z,15.67
2018-11-20T23:44:26.794Z,16.17
2018-11-20T23:46:54.941Z,15.97
2018-11-20T23:49:23.062Z,15.43
2018-11-20T23:51:51.197Z,15.03
2018-11-20T23:54:19.310Z,15.87
2018-11-20T23:56:47.557Z,15.07
2018-11-20T23:59:15.667Z,15.77
